createdAt,value
2019-04-16T00:01:27.875Z,32.27
2019-04-16T00:04:02.363Z,32.25
2019-04-16T00:06:50.994Z,32.25
2019-04-16T00:09:40.813Z,32.26
2019-04-16T00:12:22.647Z,32.25
2019-04-16T00:14:52.856Z,32.22
2019-04-16T00:17:22.402Z,32.21
2019-04-16T00:19:52.012Z,32.21
2019-04-16T00:22:28.989Z,32.22
2019-04-16T00:24:58.507Z,32.21
2019-04-16T00:27:28.733Z,32.17
2019-04-16T00:30:04.110Z,32.19
2019-04-16T00:32:30.984Z,32.18
2019-04-16T00:35:00.565Z,32.17
2019-04-16T00:37:30.202Z,32.16
2019-04-16T00:39:59.760Z,32.17
2019-04-16T00:42:29.723Z,32.15
2019-04-16T00:44:59.268Z,32.12
2019-04-16T00:47:29.164Z,32.12
2019-04-16T00:49:59.489Z,32.11
2019-04-16T00:52:29.307Z,32.12
2019-04-16T00:54:58.906Z,32.10
2019-04-16T00:57:28.832Z,32.07
2019-04-16T00:59:58.436Z,32.08
2019-04-16T01:02:28.014Z,32.06
2019-04-16T01:04:57.573Z,32.07
2019-04-16T01:07:27.149Z,32.03
2019-04-16T01:09:56.723Z,32.04
2019-04-16T01:12:26.263Z,32.03
2019-04-16T01:14:58.802Z,32.01
2019-04-16T01:17:27.047Z,32.01
2019-04-16T01:19:56.581Z,31.99
2019-04-16T01:22:26.241Z,32.00
2019-04-16T01:24:55.831Z,31.99
2019-04-16T01:27:32.421Z,31.99
2019-04-16T01:30:04.876Z,31.96
2019-04-16T01:32:53.957Z,31.96
2019-04-16T01:35:52.724Z,31.96
2019-04-16T01:38:39.470Z,31.95
2019-04-16T01:41:27.196Z,31.95
2019-04-16T01:43:57.266Z,31.96
2019-04-16T01:46:32.549Z,31.97
2019-04-16T01:48:59.192Z,31.94
2019-04-16T01:51:28.721Z,31.92
2019-04-16T01:53:58.521Z,31.92
2019-04-16T01:56:29.107Z,31.92
2019-04-16T01:58:59.125Z,31.89
2019-04-16T02:01:29.056Z,31.87
2019-04-16T02:03:58.999Z,31.86
2019-04-16T02:06:28.979Z,31.84
2019-04-16T02:09:01.743Z,31.82
2019-04-16T02:11:30.076Z,31.83
2019-04-16T02:13:59.688Z,31.80
2019-04-16T02:16:29.240Z,31.85
2019-04-16T02:19:01.299Z,31.83
2019-04-16T02:21:30.073Z,31.84
2019-04-16T02:24:00.024Z,31.81
2019-04-16T02:26:29.591Z,31.80
2019-04-16T02:28:59.619Z,31.79
2019-04-16T02:31:29.205Z,31.81
2019-04-16T02:33:58.795Z,31.81
2019-04-16T02:36:28.356Z,31.82
2019-04-16T02:38:57.947Z,31.81
2019-04-16T02:41:27.807Z,31.82
2019-04-16T02:43:57.351Z,31.80
2019-04-16T02:46:30.934Z,31.82
2019-04-16T02:48:58.214Z,31.77
2019-04-16T02:51:43.087Z,31.78
2019-04-16T02:54:20.779Z,31.76
2019-04-16T02:57:00.547Z,31.75
2019-04-16T02:59:33.551Z,31.77
2019-04-16T03:02:23.086Z,31.75
2019-04-16T03:05:14.497Z,31.73
2019-04-16T03:07:44.074Z,31.73
2019-04-16T03:10:14.048Z,31.74
2019-04-16T03:12:43.766Z,31.72
2019-04-16T03:15:16.446Z,31.71
2019-04-16T03:17:46.669Z,31.70
2019-04-16T03:20:17.014Z,31.70
2019-04-16T03:22:46.562Z,31.67
2019-04-16T03:25:16.177Z,31.66
2019-04-16T03:27:45.735Z,31.64
2019-04-16T03:30:15.673Z,31.71
2019-04-16T03:32:51.601Z,31.70
2019-04-16T03:35:25.466Z,31.67
2019-04-16T03:37:52.396Z,31.67
2019-04-16T03:40:25.633Z,31.69
2019-04-16T03:42:53.209Z,31.71
2019-04-16T03:45:22.773Z,32.50
2019-04-16T03:47:52.493Z,33.58
2019-04-16T03:50:22.228Z,34.24
2019-04-16T03:52:51.861Z,34.89
2019-04-16T03:55:24.939Z,35.11
2019-04-16T03:57:52.745Z,35.21
2019-04-16T04:00:22.349Z,35.27
2019-04-16T04:02:55.202Z,35.35
2019-04-16T04:05:23.183Z,35.32
2019-04-16T04:07:55.235Z,35.18
2019-04-16T04:10:30.848Z,35.06
2019-04-16T04:12:55.222Z,35.02
2019-04-16T04:15:26.485Z,34.89
2019-04-16T04:17:56.053Z,34.82
2019-04-16T04:20:25.599Z,34.76
2019-04-16T04:22:57.029Z,34.70
2019-04-16T04:25:26.433Z,34.66
2019-04-16T04:27:56.307Z,34.62
2019-04-16T04:30:28.729Z,34.57
2019-04-16T04:32:57.747Z,34.53
2019-04-16T04:35:27.300Z,34.50
2019-04-16T04:37:56.867Z,34.48
2019-04-16T04:40:45.179Z,34.43
2019-04-16T04:43:15.734Z,34.43
2019-04-16T04:45:45.269Z,34.40
2019-04-16T04:48:14.818Z,34.39
2019-04-16T04:50:44.400Z,34.38
2019-04-16T04:53:15.615Z,34.39
2019-04-16T04:55:45.199Z,34.37
2019-04-16T04:58:16.353Z,34.37
2019-04-16T05:00:46.201Z,34.37
2019-04-16T05:03:27.093Z,34.36
2019-04-16T05:05:58.230Z,34.36
2019-04-16T05:08:28.641Z,34.38
2019-04-16T05:11:02.673Z,34.30
2019-04-16T05:13:31.044Z,34.34
2019-04-16T05:16:02.015Z,34.29
2019-04-16T05:18:31.864Z,34.34
2019-04-16T05:21:01.780Z,34.29
2019-04-16T05:23:31.343Z,34.25
2019-04-16T05:26:04.495Z,34.25
2019-04-16T05:28:32.640Z,34.22
2019-04-16T05:31:02.191Z,34.21
2019-04-16T05:33:34.503Z,34.15
2019-04-16T05:36:03.606Z,34.13
2019-04-16T05:38:33.149Z,34.09
2019-04-16T05:41:13.260Z,34.04
2019-04-16T05:43:34.305Z,34.09
2019-04-16T05:46:05.510Z,34.02
2019-04-16T05:48:35.133Z,34.00
2019-04-16T05:51:04.923Z,33.94
2019-04-16T05:53:37.368Z,33.92
2019-04-16T05:56:29.223Z,33.90
2019-04-16T05:58:59.587Z,33.93
2019-04-16T06:01:35.235Z,33.88
2019-04-16T06:04:04.767Z,33.83
2019-04-16T06:06:34.309Z,33.76
2019-04-16T06:09:04.922Z,33.72
2019-04-16T06:11:36.536Z,33.69
2019-04-16T06:14:26.161Z,33.68
2019-04-16T06:17:17.639Z,33.67
2019-04-16T06:19:59.420Z,33.61
2019-04-16T06:22:47.945Z,33.52
2019-04-16T06:25:33.664Z,33.49
2019-04-16T06:28:34.340Z,33.42
2019-04-16T06:31:11.988Z,33.32
2019-04-16T06:33:58.792Z,33.23
2019-04-16T06:36:56.665Z,33.17
2019-04-16T06:39:41.742Z,33.10
2019-04-16T06:42:29.206Z,33.02
2019-04-16T06:45:01.547Z,32.93
2019-04-16T06:47:51.746Z,32.91
2019-04-16T06:50:49.501Z,32.88
2019-04-16T06:53:44.216Z,32.81
2019-04-16T06:56:31.416Z,32.77
2019-04-16T06:59:10.975Z,32.71
2019-04-16T07:01:58.407Z,32.63
2019-04-16T07:04:35.572Z,32.60
2019-04-16T07:07:22.553Z,32.55
2019-04-16T07:10:11.592Z,32.48
2019-04-16T07:12:41.146Z,32.44
2019-04-16T07:15:10.729Z,32.33
2019-04-16T07:17:40.738Z,32.25
2019-04-16T07:20:13.342Z,32.22
2019-04-16T07:22:41.595Z,32.12
2019-04-16T07:25:11.187Z,32.00
2019-04-16T07:28:03.851Z,31.94
2019-04-16T07:30:52.603Z,31.80
2019-04-16T07:33:43.962Z,31.74
2019-04-16T07:36:24.289Z,31.63
2019-04-16T07:39:29.603Z,31.49
2019-04-16T07:42:10.737Z,31.35
2019-04-16T07:44:41.081Z,31.24
2019-04-16T07:47:29.717Z,31.20
2019-04-16T07:50:24.112Z,31.11
2019-04-16T07:53:18.212Z,31.05
2019-04-16T07:55:49.957Z,30.96
2019-04-16T07:58:19.520Z,30.86
2019-04-16T08:00:49.095Z,30.77
2019-04-16T08:03:18.730Z,30.64
2019-04-16T08:05:48.626Z,30.60
2019-04-16T08:08:24.347Z,30.52
2019-04-16T08:10:51.318Z,30.35
2019-04-16T08:13:22.306Z,30.30
2019-04-16T08:15:52.136Z,30.22
2019-04-16T08:18:48.711Z,30.14
2019-04-16T08:21:18.450Z,30.05
2019-04-16T08:23:57.014Z,29.97
2019-04-16T08:26:26.554Z,29.92
2019-04-16T08:28:56.089Z,29.78
2019-04-16T08:31:28.147Z,29.75
2019-04-16T08:33:57.706Z,29.65
2019-04-16T08:36:27.233Z,29.65
2019-04-16T08:38:56.802Z,29.61
2019-04-16T08:41:45.018Z,29.56
2019-04-16T08:44:14.567Z,29.52
2019-04-16T08:46:44.152Z,29.53
2019-04-16T08:49:31.943Z,29.50
2019-04-16T08:52:01.950Z,29.46
2019-04-16T08:54:31.833Z,29.45
2019-04-16T08:57:03.273Z,29.44
2019-04-16T08:59:32.791Z,29.43
2019-04-16T09:02:02.354Z,29.41
2019-04-16T09:04:34.696Z,29.38
2019-04-16T09:07:11.447Z,29.42
2019-04-16T09:09:47.432Z,29.42
2019-04-16T09:12:17.063Z,29.43
2019-04-16T09:14:54.981Z,29.49
2019-04-16T09:17:23.372Z,29.52
2019-04-16T09:20:11.911Z,29.50
2019-04-16T09:22:48.710Z,29.55
2019-04-16T09:25:24.210Z,29.49
2019-04-16T09:28:00.725Z,29.52
2019-04-16T09:30:49.684Z,29.53
2019-04-16T09:33:23.921Z,29.55
2019-04-16T09:36:08.188Z,29.54
2019-04-16T09:38:49.569Z,29.55
2019-04-16T09:41:25.530Z,29.49
2019-04-16T09:43:59.447Z,29.49
2019-04-16T09:46:49.699Z,29.57
2019-04-16T09:49:00.803Z,29.58
2019-04-16T09:51:30.361Z,29.60
2019-04-16T09:53:59.926Z,29.62
2019-04-16T09:56:30.322Z,29.59
2019-04-16T09:59:14.462Z,29.57
2019-04-16T10:01:47.426Z,29.60
2019-04-16T10:04:18.626Z,29.64
2019-04-16T10:06:48.207Z,29.67
2019-04-16T10:09:21.686Z,29.67
2019-04-16T10:11:49.423Z,29.64
2019-04-16T10:14:18.964Z,29.68
2019-04-16T10:17:07.829Z,29.73
2019-04-16T10:19:37.423Z,29.76
2019-04-16T10:22:06.977Z,29.75
2019-04-16T10:24:54.049Z,29.80
2019-04-16T10:27:32.467Z,29.82
2019-04-16T10:30:02.097Z,29.86
2019-04-16T10:32:31.666Z,29.86
2019-04-16T10:35:01.503Z,29.87
2019-04-16T10:37:31.032Z,29.91
2019-04-16T10:40:09.532Z,29.89
2019-04-16T10:42:56.877Z,29.92
2019-04-16T10:45:44.194Z,29.94
2019-04-16T10:48:31.450Z,29.98
2019-04-16T10:51:21.501Z,30.01
2019-04-16T10:53:55.330Z,30.03
2019-04-16T10:56:42.524Z,30.06
2019-04-16T10:59:31.440Z,30.08
2019-04-16T11:02:19.974Z,30.08
2019-04-16T11:05:15.266Z,30.08
2019-04-16T11:07:45.624Z,30.11
2019-04-16T11:10:15.312Z,30.13
2019-04-16T11:12:45.006Z,30.16
2019-04-16T11:15:19.305Z,30.15
2019-04-16T11:17:48.847Z,30.17
2019-04-16T11:20:18.381Z,30.16
2019-04-16T11:22:48.033Z,30.16
2019-04-16T11:25:17.704Z,30.16
2019-04-16T11:27:47.329Z,30.14
2019-04-16T11:30:30.784Z,30.13
2019-04-16T11:33:00.612Z,30.12
2019-04-16T11:35:30.225Z,30.09
2019-04-16T11:37:59.901Z,30.08
2019-04-16T11:40:29.470Z,30.09
2019-04-16T11:42:59.017Z,30.10
2019-04-16T11:45:28.902Z,30.09
2019-04-16T11:47:58.518Z,30.11
2019-04-16T11:50:28.062Z,30.10
2019-04-16T11:52:58.673Z,30.08
2019-04-16T11:55:28.289Z,30.08
2019-04-16T11:57:58.175Z,30.04
2019-04-16T12:00:52.577Z,30.02
2019-04-16T12:03:28.217Z,30.06
2019-04-16T12:06:29.015Z,30.07
2019-04-16T12:09:20.510Z,30.04
2019-04-16T12:12:04.280Z,30.06
2019-04-16T12:14:52.216Z,30.06
2019-04-16T12:17:36.235Z,30.05
2019-04-16T12:20:24.003Z,30.04
2019-04-16T12:23:18.528Z,30.04
2019-04-16T12:26:08.724Z,30.03
2019-04-16T12:29:15.983Z,30.01
2019-04-16T12:32:13.142Z,29.98
2019-04-16T12:35:02.008Z,29.97
2019-04-16T12:37:49.043Z,29.94
2019-04-16T12:40:54.801Z,29.95
2019-04-16T12:43:33.916Z,29.94
2019-04-16T12:46:31.199Z,29.97
2019-04-16T12:49:18.372Z,29.96
2019-04-16T12:52:06.940Z,29.95
2019-04-16T12:55:02.072Z,29.97
2019-04-16T12:57:39.950Z,29.93
2019-04-16T13:00:14.401Z,29.94
2019-04-16T13:02:49.556Z,29.92
2019-04-16T13:05:38.090Z,29.93
2019-04-16T13:08:32.572Z,29.93
2019-04-16T13:11:19.118Z,29.91
2019-04-16T13:14:06.376Z,29.91
2019-04-16T13:17:03.963Z,29.88
2019-04-16T13:19:44.036Z,29.89
2019-04-16T13:22:15.090Z,29.82
2019-04-16T13:24:47.990Z,29.88
2019-04-16T13:27:32.537Z,29.85
2019-04-16T13:30:03.198Z,29.83
2019-04-16T13:32:33.128Z,29.84
2019-04-16T13:35:03.010Z,29.85
2019-04-16T13:37:36.851Z,29.87
2019-04-16T13:40:09.743Z,29.84
2019-04-16T13:42:39.407Z,29.85
2019-04-16T13:45:27.030Z,29.84
2019-04-16T13:47:56.509Z,29.82
2019-04-16T13:50:45.571Z,29.83
2019-04-16T13:53:34.149Z,29.82
2019-04-16T13:56:25.396Z,29.80
2019-04-16T13:59:13.161Z,29.84
2019-04-16T14:01:48.297Z,29.83
2019-04-16T14:04:17.845Z,29.84
2019-04-16T14:06:47.420Z,29.89
2019-04-16T14:09:16.968Z,29.89
2019-04-16T14:11:51.061Z,29.89
2019-04-16T14:14:18.770Z,29.91
2019-04-16T14:16:49.124Z,30.27
2019-04-16T14:19:18.999Z,30.35
2019-04-16T14:21:48.581Z,30.34
2019-04-16T14:24:18.139Z,30.30
2019-04-16T14:26:47.717Z,30.20
2019-04-16T14:29:17.270Z,30.08
2019-04-16T14:31:48.911Z,30.00
2019-04-16T14:34:25.198Z,29.98
2019-04-16T14:36:56.972Z,29.91
2019-04-16T14:39:31.968Z,29.87
2019-04-16T14:42:01.551Z,29.84
2019-04-16T14:44:36.328Z,29.84
2019-04-16T14:47:05.914Z,29.79
2019-04-16T14:49:35.468Z,29.77
2019-04-16T14:52:05.616Z,29.74
2019-04-16T14:54:43.239Z,29.71
2019-04-16T14:57:13.327Z,29.68
2019-04-16T15:00:10.725Z,29.66
2019-04-16T15:02:51.840Z,29.66
2019-04-16T15:05:47.617Z,29.62
2019-04-16T15:08:36.677Z,29.63
2019-04-16T15:11:28.149Z,29.60
2019-04-16T15:14:08.011Z,29.65
2019-04-16T15:16:42.325Z,29.64
2019-04-16T15:19:29.736Z,29.68
2019-04-16T15:22:16.801Z,29.68
2019-04-16T15:24:50.905Z,29.71
2019-04-16T15:27:51.260Z,29.73
2019-04-16T15:30:45.751Z,29.77
2019-04-16T15:33:35.713Z,29.84
2019-04-16T15:36:09.877Z,29.90
2019-04-16T15:38:59.038Z,29.93
2019-04-16T15:41:58.581Z,29.95
2019-04-16T15:44:34.927Z,30.02
2019-04-16T15:47:32.142Z,30.07
2019-04-16T15:50:20.013Z,30.09
2019-04-16T15:53:04.936Z,30.15
2019-04-16T15:55:56.417Z,30.23
2019-04-16T15:58:48.111Z,30.24
2019-04-16T16:01:35.998Z,30.28
2019-04-16T16:04:18.098Z,30.30
2019-04-16T16:06:55.039Z,30.35
2019-04-16T16:09:43.655Z,30.38
2019-04-16T16:12:15.286Z,30.42
2019-04-16T16:14:44.854Z,30.42
2019-04-16T16:17:14.738Z,30.46
2019-04-16T16:19:44.305Z,30.50
2019-04-16T16:22:13.878Z,30.51
2019-04-16T16:24:43.439Z,30.55
2019-04-16T16:27:13.414Z,30.55
2019-04-16T16:29:43.001Z,30.61
2019-04-16T16:32:12.560Z,30.63
2019-04-16T16:34:42.094Z,30.64
2019-04-16T16:37:11.662Z,30.67
2019-04-16T16:39:41.195Z,30.70
2019-04-16T16:42:11.087Z,30.70
2019-04-16T16:44:40.624Z,30.73
2019-04-16T16:47:28.098Z,30.73
2019-04-16T16:49:57.659Z,30.78
2019-04-16T16:52:55.157Z,30.81
2019-04-16T16:55:49.806Z,30.82
2019-04-16T16:58:36.910Z,30.86
2019-04-16T17:01:43.363Z,30.88
2019-04-16T17:04:18.777Z,30.91
2019-04-16T17:06:48.334Z,30.95
2019-04-16T17:09:27.179Z,30.97
2019-04-16T17:11:57.669Z,31.01
2019-04-16T17:14:27.236Z,31.04
2019-04-16T17:17:11.754Z,31.06
2019-04-16T17:19:28.775Z,31.09
2019-04-16T17:21:58.449Z,31.11
2019-04-16T17:24:28.079Z,31.19
2019-04-16T17:26:57.675Z,31.18
2019-04-16T17:29:27.367Z,31.26
2019-04-16T17:31:56.922Z,31.26
2019-04-16T17:34:26.611Z,31.28
2019-04-16T17:36:56.440Z,31.31
2019-04-16T17:40:00.365Z,31.34
2019-04-16T17:42:37.805Z,31.34
2019-04-16T17:45:44.342Z,31.36
2019-04-16T17:48:24.017Z,31.87
2019-04-16T17:51:06.300Z,32.00
2019-04-16T17:54:07.105Z,32.01
2019-04-16T17:56:58.167Z,31.99
2019-04-16T17:59:33.598Z,31.97
2019-04-16T18:02:37.014Z,31.95
2019-04-16T18:05:14.467Z,31.95
2019-04-16T18:08:06.989Z,31.93
2019-04-16T18:11:01.421Z,31.94
2019-04-16T18:14:08.825Z,31.92
2019-04-16T18:16:42.241Z,31.92
2019-04-16T18:19:30.815Z,31.92
2019-04-16T18:22:06.254Z,31.96
2019-04-16T18:24:53.613Z,31.96
2019-04-16T18:27:46.926Z,31.96
2019-04-16T18:30:38.165Z,31.95
2019-04-16T18:33:27.152Z,31.96
2019-04-16T18:36:18.643Z,32.00
2019-04-16T18:39:05.974Z,32.05
2019-04-16T18:41:48.331Z,32.04
2019-04-16T18:44:44.695Z,32.05
2019-04-16T18:47:32.840Z,32.08
2019-04-16T18:50:04.915Z,32.08
2019-04-16T18:52:36.566Z,32.08
2019-04-16T18:55:06.019Z,32.10
2019-04-16T18:57:38.427Z,32.09
2019-04-16T19:00:09.472Z,32.10
2019-04-16T19:02:41.912Z,32.11
2019-04-16T19:05:10.594Z,32.13
2019-04-16T19:07:40.499Z,32.15
2019-04-16T19:10:10.054Z,32.16
2019-04-16T19:12:39.638Z,32.20
2019-04-16T19:15:09.545Z,32.19
2019-04-16T19:17:39.143Z,32.24
2019-04-16T19:20:09.027Z,32.29
2019-04-16T19:22:38.562Z,32.33
2019-04-16T19:25:09.207Z,32.33
2019-04-16T19:27:39.236Z,32.36
2019-04-16T19:30:08.817Z,32.38
2019-04-16T19:32:38.825Z,32.39
2019-04-16T19:35:11.386Z,32.45
2019-04-16T19:37:39.875Z,32.47
2019-04-16T19:40:09.718Z,32.48
2019-04-16T19:42:39.289Z,32.47
2019-04-16T19:45:12.141Z,32.48
2019-04-16T19:47:40.400Z,32.47
2019-04-16T19:50:10.208Z,32.49
2019-04-16T19:52:39.916Z,32.50
2019-04-16T19:55:12.533Z,32.50
2019-04-16T19:57:41.284Z,32.52
2019-04-16T20:00:11.099Z,32.54
2019-04-16T20:02:40.806Z,32.58
2019-04-16T20:05:12.080Z,32.58
2019-04-16T20:07:41.989Z,32.64
2019-04-16T20:10:14.939Z,32.65
2019-04-16T20:12:44.851Z,32.68
2019-04-16T20:15:14.568Z,32.71
2019-04-16T20:17:44.208Z,32.74
2019-04-16T20:20:13.789Z,32.79
2019-04-16T20:22:45.120Z,32.91
2019-04-16T20:25:14.681Z,33.09
2019-04-16T20:27:44.219Z,33.10
2019-04-16T20:30:14.974Z,33.15
2019-04-16T20:32:44.522Z,33.17
2019-04-16T20:35:17.940Z,33.18
2019-04-16T20:37:46.073Z,33.19
2019-04-16T20:40:17.725Z,33.21
2019-04-16T20:42:46.893Z,33.23
2019-04-16T20:45:16.781Z,33.25
2019-04-16T20:47:46.335Z,33.29
2019-04-16T20:50:20.583Z,33.31
2019-04-16T20:52:47.155Z,33.33
2019-04-16T20:55:16.868Z,33.35
2019-04-16T20:57:46.435Z,33.39
2019-04-16T21:00:21.396Z,33.43
2019-04-16T21:02:51.299Z,33.46
2019-04-16T21:05:22.661Z,33.50
2019-04-16T21:08:10.347Z,33.52
2019-04-16T21:10:59.909Z,33.55
2019-04-16T21:13:29.610Z,33.59
2019-04-16T21:16:01.750Z,33.64
2019-04-16T21:18:30.872Z,33.71
2019-04-16T21:21:00.454Z,33.72
2019-04-16T21:23:31.976Z,33.76
2019-04-16T21:26:01.757Z,33.79
2019-04-16T21:28:39.140Z,33.81
2019-04-16T21:31:14.878Z,33.82
2019-04-16T21:33:53.097Z,33.86
2019-04-16T21:36:37.978Z,33.90
2019-04-16T21:39:17.106Z,33.93
2019-04-16T21:41:44.647Z,33.94
2019-04-16T21:44:14.200Z,33.98
2019-04-16T21:46:44.009Z,34.01
2019-04-16T21:49:13.586Z,34.03
2019-04-16T21:52:01.589Z,34.23
2019-04-16T21:54:31.654Z,34.20
2019-04-16T21:57:01.241Z,34.18
2019-04-16T21:59:31.253Z,34.23
2019-04-16T22:02:01.104Z,34.21
2019-04-16T22:04:30.678Z,34.22
2019-04-16T22:07:00.306Z,34.24
2019-04-16T22:09:29.915Z,34.43
2019-04-16T22:11:59.783Z,34.52
2019-04-16T22:14:29.469Z,34.47
2019-04-16T22:16:59.930Z,34.50
2019-04-16T22:19:30.905Z,34.48
2019-04-16T22:22:00.595Z,34.50
2019-04-16T22:24:30.154Z,34.51
2019-04-16T22:26:59.703Z,34.50
2019-04-16T22:29:29.248Z,34.52
2019-04-16T22:31:58.794Z,34.54
2019-04-16T22:34:28.336Z,34.54
2019-04-16T22:36:58.146Z,34.56
2019-04-16T22:39:40.285Z,34.57
2019-04-16T22:42:18.982Z,34.57
2019-04-16T22:45:07.892Z,34.57
2019-04-16T22:47:39.033Z,34.63
2019-04-16T22:50:16.042Z,34.61
2019-04-16T22:52:41.625Z,34.66
2019-04-16T22:55:11.179Z,34.66
2019-04-16T22:57:40.850Z,34.69
2019-04-16T23:00:21.411Z,34.72
2019-04-16T23:02:51.352Z,34.77
2019-04-16T23:05:20.886Z,34.76
2019-04-16T23:07:50.716Z,34.79
2019-04-16T23:10:21.002Z,34.78
2019-04-16T23:12:51.541Z,34.80
2019-04-16T23:15:21.068Z,34.80
2019-04-16T23:17:50.649Z,34.82
2019-04-16T23:20:40.328Z,34.85
2019-04-16T23:23:10.001Z,34.87
2019-04-16T23:25:40.176Z,34.90
2019-04-16T23:28:11.692Z,34.90
2019-04-16T23:30:41.940Z,34.93
2019-04-16T23:33:11.486Z,34.92
2019-04-16T23:35:44.295Z,34.97
2019-04-16T23:38:12.301Z,34.95
2019-04-16T23:40:43.904Z,34.98
2019-04-16T23:43:47.571Z,34.99
2019-04-16T23:46:48.062Z,34.99
2019-04-16T23:49:45.509Z,35.03
2019-04-16T23:52:20.728Z,35.08
2019-04-16T23:55:16.317Z,35.11
2019-04-16T23:58:01.549Z,35.15
